sensor_id;sensor_type;location;lat;lon;timestamp;pressure;altitude;pressure_sealevel;temperature;humidity
40612;BME280;26317;44.894;20.286;2022-12-24T00:01:44;100473.72;;;8.81;84.29
40612;BME280;26317;44.894;20.286;2022-12-24T00:04:13;100475.03;;;8.78;84.29
40612;BME280;26317;44.894;20.286;2022-12-24T00:06:58;100475.56;;;8.75;84.39
40612;BME280;26317;44.894;20.286;2022-12-24T00:09:33;100472.03;;;8.69;84.50
40612;BME280;26317;44.894;20.286;2022-12-24T00:12:08;100480.34;;;8.73;84.58
40612;BME280;26317;44.894;20.286;2022-12-24T00:14:40;100473.41;;;8.72;84.81
40612;BME280;26317;44.894;20.286;2022-12-24T00:17:10;100472.59;;;8.71;84.78
40612;BME280;26317;44.894;20.286;2022-12-24T00:19:49;100440.91;;;8.48;85.11
40612;BME280;26317;44.894;20.286;2022-12-24T00:22:19;100474.72;;;8.69;85.06
40612;BME280;26317;44.894;20.286;2022-12-24T00:25:01;100469.91;;;8.66;84.90
40612;BME280;26317;44.894;20.286;2022-12-24T00:27:35;100473.09;;;8.68;85.37
40612;BME280;26317;44.894;20.286;2022-12-24T00:30:19;100464.53;;;8.66;85.32
40612;BME280;26317;44.894;20.286;2022-12-24T00:32:51;100466.97;;;8.68;84.35
40612;BME280;26317;44.894;20.286;2022-12-24T00:35:26;100466.91;;;8.58;84.68
40612;BME280;26317;44.894;20.286;2022-12-24T00:37:59;100435.53;;;8.38;84.05
40612;BME280;26317;44.894;20.286;2022-12-24T00:40:34;100457.22;;;8.47;84.46
40612;BME280;26317;44.894;20.286;2022-12-24T00:43:10;100463.38;;;8.47;85.22
40612;BME280;26317;44.894;20.286;2022-12-24T00:45:44;100455.31;;;8.42;85.55
40612;BME280;26317;44.894;20.286;2022-12-24T00:48:14;100447.03;;;8.39;86.12
40612;BME280;26317;44.894;20.286;2022-12-24T00:50:53;100447.81;;;8.39;85.90
40612;BME280;26317;44.894;20.286;2022-12-24T00:53:23;100443.28;;;8.40;85.77
40612;BME280;26317;44.894;20.286;2022-12-24T00:55:59;100443.28;;;8.40;86.34
40612;BME280;26317;44.894;20.286;2022-12-24T00:58:36;100443.28;;;8.40;86.13
40612;BME280;26317;44.894;20.286;2022-12-24T01:01:08;100450.78;;;8.43;85.83
40612;BME280;26317;44.894;20.286;2022-12-24T01:03:48;100439.53;;;8.41;86.48
40612;BME280;26317;44.894;20.286;2022-12-24T01:06:40;100434.72;;;8.38;86.43
40612;BME280;26317;44.894;20.286;2022-12-24T01:09:10;100439.25;;;8.37;86.69
40612;BME280;26317;44.894;20.286;2022-12-24T01:11:45;100439.25;;;8.37;86.85
40612;BME280;26317;44.894;20.286;2022-12-24T01:14:19;100426.66;;;8.32;87.05
40612;BME280;26317;44.894;20.286;2022-12-24T01:16:52;100439.00;;;8.44;86.88
40612;BME280;26317;44.894;20.286;2022-12-24T01:19:33;100431.03;;;8.49;86.89
40612;BME280;26317;44.894;20.286;2022-12-24T01:22:10;100433.19;;;8.52;86.31
40612;BME280;26317;44.894;20.286;2022-12-24T01:24:45;100435.06;;;8.51;86.74
40612;BME280;26317;44.894;20.286;2022-12-24T01:27:18;100435.56;;;8.48;86.75
40612;BME280;26317;44.894;20.286;2022-12-24T01:29:53;100441.75;;;8.54;86.21
40612;BME280;26317;44.894;20.286;2022-12-24T01:32:29;100443.91;;;8.57;85.70
40612;BME280;26317;44.894;20.286;2022-12-24T01:34:57;100436.44;;;8.59;85.87
40612;BME280;26317;44.894;20.286;2022-12-24T01:37:49;100415.28;;;8.52;85.50
40612;BME280;26317;44.894;20.286;2022-12-24T01:40:34;100416.13;;;8.58;85.65
40612;BME280;26317;44.894;20.286;2022-12-24T01:43:21;100432.44;;;8.61;86.10
40612;BME280;26317;44.894;20.286;2022-12-24T01:46:08;100428.94;;;8.61;85.99
40612;BME280;26317;44.894;20.286;2022-12-24T01:48:44;100432.19;;;8.63;85.96
40612;BME280;26317;44.894;20.286;2022-12-24T01:51:21;100428.47;;;8.64;85.68
40612;BME280;26317;44.894;20.286;2022-12-24T01:53:58;100439.44;;;8.67;85.48
40612;BME280;26317;44.894;20.286;2022-12-24T01:56:32;100437.56;;;8.68;85.16
40612;BME280;26317;44.894;20.286;2022-12-24T01:59:10;100434.09;;;8.67;85.40
40612;BME280;26317;44.894;20.286;2022-12-24T02:01:47;100451.47;;;8.70;85.21
40612;BME280;26317;44.894;20.286;2022-12-24T02:04:33;100466.44;;;8.71;85.37
40612;BME280;26317;44.894;20.286;2022-12-24T02:07:23;100460.00;;;8.67;85.35
40612;BME280;26317;44.894;20.286;2022-12-24T02:09:59;100466.97;;;8.68;85.12
40612;BME280;26317;44.894;20.286;2022-12-24T02:12:31;100465.88;;;8.69;85.21
40612;BME280;26317;44.894;20.286;2022-12-24T02:15:17;100470.19;;;8.70;85.44
40612;BME280;26317;44.894;20.286;2022-12-24T02:17:58;100463.22;;;8.69;85.76
40612;BME280;26317;44.894;20.286;2022-12-24T02:21:12;100479.84;;;8.76;85.38
40612;BME280;26317;44.894;20.286;2022-12-24T02:27:45;100478.44;;;8.68;85.51
40612;BME280;26317;44.894;20.286;2022-12-24T02:30:29;100481.16;;;8.73;85.32
40612;BME280;26317;44.894;20.286;2022-12-24T02:33:14;100489.44;;;8.72;85.54
40612;BME280;26317;44.894;20.286;2022-12-24T02:35:54;100489.69;;;8.70;85.63
40612;BME280;26317;44.894;20.286;2022-12-24T02:38:30;100476.34;;;8.70;86.37
40612;BME280;26317;44.894;20.286;2022-12-24T02:41:10;100494.81;;;8.72;86.66
40612;BME280;26317;44.894;20.286;2022-12-24T02:43:45;100497.16;;;8.63;86.77
40612;BME280;26317;44.894;20.286;2022-12-24T02:46:29;100498.97;;;8.58;87.48
40612;BME280;26317;44.894;20.286;2022-12-24T02:49:01;100502.66;;;8.52;87.89
40612;BME280;26317;44.894;20.286;2022-12-24T02:51:37;100501.09;;;8.51;88.80
40612;BME280;26317;44.894;20.286;2022-12-24T02:54:18;100488.22;;;8.48;88.59
40612;BME280;26317;44.894;20.286;2022-12-24T02:57:22;100485.59;;;8.53;89.02
40612;BME280;26317;44.894;20.286;2022-12-24T03:00:11;100487.72;;;8.56;89.10
40612;BME280;26317;44.894;20.286;2022-12-24T03:03:12;100480.31;;;8.63;88.93
40612;BME280;26317;44.894;20.286;2022-12-24T03:06:08;100482.50;;;8.71;89.00
40612;BME280;26317;44.894;20.286;2022-12-24T03:08:47;100468.63;;;8.79;88.96
40612;BME280;26317;44.894;20.286;2022-12-24T03:11:26;100465.16;;;8.84;88.60
40612;BME280;26317;44.894;20.286;2022-12-24T03:14:02;100459.03;;;8.88;88.44
40612;BME280;26317;44.894;20.286;2022-12-24T03:16:36;100437.66;;;8.88;88.42
40612;BME280;26317;44.894;20.286;2022-12-24T03:19:12;100422.09;;;8.85;88.41
40612;BME280;26317;44.894;20.286;2022-12-24T03:21:46;100412.50;;;8.89;88.97
40612;BME280;26317;44.894;20.286;2022-12-24T03:24:25;100410.06;;;8.83;88.88
40612;BME280;26317;44.894;20.286;2022-12-24T03:27:18;100417.25;;;8.77;89.58
40612;BME280;26317;44.894;20.286;2022-12-24T03:29:49;100431.97;;;8.74;89.39
40612;BME280;26317;44.894;20.286;2022-12-24T03:32:23;100442.63;;;8.69;89.51
40612;BME280;26317;44.894;20.286;2022-12-24T03:35:01;100439.16;;;8.64;89.72
40612;BME280;26317;44.894;20.286;2022-12-24T03:37:35;100463.00;;;8.75;89.63
40612;BME280;26317;44.894;20.286;2022-12-24T03:40:08;100460.03;;;8.77;90.14
40612;BME280;26317;44.894;20.286;2022-12-24T03:42:41;100433.84;;;8.79;90.12
40612;BME280;26317;44.894;20.286;2022-12-24T03:45:15;100429.56;;;8.78;89.87
40612;BME280;26317;44.894;20.286;2022-12-24T03:47:52;100426.88;;;8.73;89.92
40612;BME280;26317;44.894;20.286;2022-12-24T03:50:23;100453.66;;;8.83;89.28
40612;BME280;26317;44.894;20.286;2022-12-24T03:52:53;100461.94;;;8.82;89.59
40612;BME280;26317;44.894;20.286;2022-12-24T03:55:32;100456.59;;;8.76;89.83
40612;BME280;26317;44.894;20.286;2022-12-24T03:58:04;100483.38;;;8.87;90.02
40612;BME280;26317;44.894;20.286;2022-12-24T04:00:36;100490.06;;;8.89;89.47
40612;BME280;26317;44.894;20.286;2022-12-24T04:03:08;100498.63;;;8.91;89.26
40612;BME280;26317;44.894;20.286;2022-12-24T04:05:47;100477.75;;;8.88;88.98
40612;BME280;26317;44.894;20.286;2022-12-24T04:08:27;100491.16;;;8.93;88.96
40612;BME280;26317;44.894;20.286;2022-12-24T04:11:05;100496.78;;;8.97;89.29
40612;BME280;26317;44.894;20.286;2022-12-24T04:13:38;100485.28;;;8.96;89.58
40612;BME280;26317;44.894;20.286;2022-12-24T04:16:08;100484.22;;;8.97;89.56
40612;BME280;26317;44.894;20.286;2022-12-24T04:18:43;100484.47;;;8.96;89.94
40612;BME280;26317;44.894;20.286;2022-12-24T04:21:18;100488.50;;;8.98;89.71
40612;BME280;26317;44.894;20.286;2022-12-24T04:23:52;100476.69;;;8.89;90.13
40612;BME280;26317;44.894;20.286;2022-12-24T04:26:26;100493.34;;;9.01;90.13
40612;BME280;26317;44.894;20.286;2022-12-24T04:29:00;100483.16;;;9.03;90.30
40612;BME280;26317;44.894;20.286;2022-12-24T04:31:40;100490.66;;;9.06;89.98
40612;BME280;26317;44.894;20.286;2022-12-24T04:34:14;100493.09;;;9.08;90.18
40612;BME280;26317;44.894;20.286;2022-12-24T04:36:47;100492.03;;;9.09;90.36
40612;BME280;26317;44.894;20.286;2022-12-24T04:39:17;100493.34;;;9.06;90.41
40612;BME280;26317;44.894;20.286;2022-12-24T04:41:49;100491.75;;;9.05;91.27
40612;BME280;26317;44.894;20.286;2022-12-24T04:44:22;100488.53;;;9.08;91.41
40612;BME280;26317;44.894;20.286;2022-12-24T04:46:53;100484.53;;;9.11;91.75
40612;BME280;26317;44.894;20.286;2022-12-24T04:49:25;100488.81;;;9.12;91.20
40612;BME280;26317;44.894;20.286;2022-12-24T04:51:59;100478.38;;;9.10;91.33
40612;BME280;26317;44.894;20.286;2022-12-24T04:54:30;100474.91;;;9.10;90.52
40612;BME280;26317;44.894;20.286;2022-12-24T04:57:04;100480.25;;;9.15;90.04
40612;BME280;26317;44.894;20.286;2022-12-24T04:59:39;100480.81;;;9.17;89.47
40612;BME280;26317;44.894;20.286;2022-12-24T05:02:12;100475.19;;;9.13;89.80
40612;BME280;26317;44.894;20.286;2022-12-24T05:04:45;100471.16;;;9.11;89.90
40612;BME280;26317;44.894;20.286;2022-12-24T05:07:18;100474.38;;;9.13;89.49
40612;BME280;26317;44.894;20.286;2022-12-24T05:09:51;100466.09;;;9.09;89.92
40612;BME280;26317;44.894;20.286;2022-12-24T05:12:21;100459.63;;;9.10;89.89
40612;BME280;26317;44.894;20.286;2022-12-24T05:14:52;100447.59;;;9.08;90.19
40612;BME280;26317;44.894;20.286;2022-12-24T05:17:31;100452.72;;;9.09;90.69
40612;BME280;26317;44.894;20.286;2022-12-24T05:20:06;100450.03;;;9.09;90.14
40612;BME280;26317;44.894;20.286;2022-12-24T05:22:40;100452.97;;;9.08;90.01
40612;BME280;26317;44.894;20.286;2022-12-24T05:25:23;100455.63;;;9.08;89.88
40612;BME280;26317;44.894;20.286;2022-12-24T05:28:08;100458.88;;;9.10;90.06
40612;BME280;26317;44.894;20.286;2022-12-24T05:30:47;100459.66;;;9.15;89.75
40612;BME280;26317;44.894;20.286;2022-12-24T05:33:18;100456.47;;;9.18;89.62
40612;BME280;26317;44.894;20.286;2022-12-24T05:35:52;100465.28;;;9.19;89.51
40612;BME280;26317;44.894;20.286;2022-12-24T05:38:27;100466.13;;;9.24;89.38
40612;BME280;26317;44.894;20.286;2022-12-24T05:41:16;100472.03;;;9.27;89.59
40612;BME280;26317;44.894;20.286;2022-12-24T05:43:49;100481.91;;;9.31;89.33
40612;BME280;26317;44.894;20.286;2022-12-24T05:46:23;100481.66;;;9.33;88.66
40612;BME280;26317;44.894;20.286;2022-12-24T05:48:53;100482.47;;;9.33;89.20
40612;BME280;26317;44.894;20.286;2022-12-24T05:51:25;100493.44;;;9.37;89.41
40612;BME280;26317;44.894;20.286;2022-12-24T05:54:00;100487.56;;;9.35;89.18
40612;BME280;26317;44.894;20.286;2022-12-24T05:56:33;100495.59;;;9.40;89.18
40612;BME280;26317;44.894;20.286;2022-12-24T06:01:49;100503.38;;;9.41;89.01
40612;BME280;26317;44.894;20.286;2022-12-24T06:04:21;100504.16;;;9.37;89.38
40612;BME280;26317;44.894;20.286;2022-12-24T06:06:50;100518.63;;;9.41;88.76
40612;BME280;26317;44.894;20.286;2022-12-24T06:09:36;100498.75;;;9.21;89.36
40612;BME280;26317;44.894;20.286;2022-12-24T06:12:11;100523.44;;;9.34;89.74
40612;BME280;26317;44.894;20.286;2022-12-24T06:14:44;100549.66;;;9.37;90.09
40612;BME280;26317;44.894;20.286;2022-12-24T06:17:24;100556.63;;;9.38;90.20
40612;BME280;26317;44.894;20.286;2022-12-24T06:19:52;100566.25;;;9.34;90.29
40612;BME280;26317;44.894;20.286;2022-12-24T06:22:27;100569.44;;;9.26;91.13
40612;BME280;26317;44.894;20.286;2022-12-24T06:25:03;100540.69;;;9.01;91.94
40612;BME280;26317;44.894;20.286;2022-12-24T06:27:35;100580.06;;;9.15;92.32
40612;BME280;26317;44.894;20.286;2022-12-24T06:30:16;100585.16;;;9.12;92.85
40612;BME280;26317;44.894;20.286;2022-12-24T06:32:50;100588.88;;;9.06;93.51
40612;BME280;26317;44.894;20.286;2022-12-24T06:35:21;100594.19;;;9.01;93.90
40612;BME280;26317;44.894;20.286;2022-12-24T06:37:52;100593.91;;;9.02;94.03
40612;BME280;26317;44.894;20.286;2022-12-24T06:40:32;100596.88;;;9.01;94.51
40612;BME280;26317;44.894;20.286;2022-12-24T06:43:05;100601.94;;;9.02;94.68
40612;BME280;26317;44.894;20.286;2022-12-24T06:45:43;100589.94;;;9.05;95.00
40612;BME280;26317;44.894;20.286;2022-12-24T06:48:17;100591.31;;;9.12;94.03
40612;BME280;26317;44.894;20.286;2022-12-24T06:50:49;100593.13;;;9.07;93.89
40612;BME280;26317;44.894;20.286;2022-12-24T06:53:21;100610.00;;;9.07;94.08
40612;BME280;26317;44.894;20.286;2022-12-24T06:56:09;100611.59;;;9.03;93.95
40612;BME280;26317;44.894;20.286;2022-12-24T06:58:42;100615.84;;;8.99;94.09
40612;BME280;26317;44.894;20.286;2022-12-24T07:01:18;100598.41;;;8.92;94.54
40612;BME280;26317;44.894;20.286;2022-12-24T07:03:50;100605.41;;;9.03;94.47
40612;BME280;26317;44.894;20.286;2022-12-24T07:06:28;100606.22;;;9.03;94.43
40612;BME280;26317;44.894;20.286;2022-12-24T07:09:01;100595.53;;;9.03;94.91
40612;BME280;26317;44.894;20.286;2022-12-24T07:11:40;100597.69;;;9.06;95.13
40612;BME280;26317;44.894;20.286;2022-12-24T07:14:16;100611.63;;;9.08;94.61
40612;BME280;26317;44.894;20.286;2022-12-24T07:16:49;100606.25;;;9.08;94.55
40612;BME280;26317;44.894;20.286;2022-12-24T07:19:24;100566.56;;;8.90;95.10
40612;BME280;26317;44.894;20.286;2022-12-24T07:21:55;100605.75;;;9.11;95.17
40612;BME280;26317;44.894;20.286;2022-12-24T07:24:26;100621.53;;;9.13;95.13
40612;BME280;26317;44.894;20.286;2022-12-24T07:27:14;100629.28;;;9.09;95.14
40612;BME280;26317;44.894;20.286;2022-12-24T07:29:53;100627.44;;;9.10;95.01
40612;BME280;26317;44.894;20.286;2022-12-24T07:32:22;100635.72;;;9.13;95.58
40612;BME280;26317;44.894;20.286;2022-12-24T07:34:57;100640.56;;;9.16;95.67
40612;BME280;26317;44.894;20.286;2022-12-24T07:37:42;100640.56;;;9.16;95.94
40612;BME280;26317;44.894;20.286;2022-12-24T07:40:17;100640.31;;;9.18;95.89
40612;BME280;26317;44.894;20.286;2022-12-24T07:42:52;100633.88;;;9.19;96.23
40612;BME280;26317;44.894;20.286;2022-12-24T07:45:24;100613.72;;;9.06;96.37
40612;BME280;26317;44.894;20.286;2022-12-24T07:47:56;100634.97;;;9.18;96.58
40612;BME280;26317;44.894;20.286;2022-12-24T07:50:30;100637.13;;;9.21;96.87
40612;BME280;26317;44.894;20.286;2022-12-24T07:53:04;100633.06;;;9.18;96.81
40612;BME280;26317;44.894;20.286;2022-12-24T07:55:43;100635.25;;;9.21;97.26
40612;BME280;26317;44.894;20.286;2022-12-24T07:58:15;100636.63;;;9.29;97.10
40612;BME280;26317;44.894;20.286;2022-12-24T08:00:47;100635.81;;;9.29;97.50
40612;BME280;26317;44.894;20.286;2022-12-24T08:03:23;100643.84;;;9.29;97.78
40612;BME280;26317;44.894;20.286;2022-12-24T08:05:54;100647.84;;;9.31;97.82
40612;BME280;26317;44.894;20.286;2022-12-24T08:08:26;100639.06;;;9.36;97.75
40612;BME280;26317;44.894;20.286;2022-12-24T08:11:00;100630.78;;;9.37;98.26
40612;BME280;26317;44.894;20.286;2022-12-24T08:13:40;100631.06;;;9.41;97.92
40612;BME280;26317;44.894;20.286;2022-12-24T08:16:18;100636.97;;;9.43;98.40
40612;BME280;26317;44.894;20.286;2022-12-24T08:18:54;100638.88;;;9.47;98.61
40612;BME280;26317;44.894;20.286;2022-12-24T08:21:28;100637.53;;;9.50;98.25
40612;BME280;26317;44.894;20.286;2022-12-24T08:24:01;100637.00;;;9.53;98.60
40612;BME280;26317;44.894;20.286;2022-12-24T08:26:32;100624.97;;;9.60;98.80
40612;BME280;26317;44.894;20.286;2022-12-24T08:29:13;100636.53;;;9.66;98.86
40612;BME280;26317;44.894;20.286;2022-12-24T08:31:43;100635.19;;;9.68;98.73
40612;BME280;26317;44.894;20.286;2022-12-24T08:36:59;100638.69;;;9.74;98.95
40612;BME280;26317;44.894;20.286;2022-12-24T08:39:34;100630.13;;;9.77;99.03
40612;BME280;26317;44.894;20.286;2022-12-24T08:42:07;100635.78;;;9.81;98.97
40612;BME280;26317;44.894;20.286;2022-12-24T08:44:41;100628.03;;;9.84;98.90
40612;BME280;26317;44.894;20.286;2022-12-24T08:47:11;100630.72;;;9.89;98.24
40612;BME280;26317;44.894;20.286;2022-12-24T08:49:40;100624.28;;;9.90;98.28
40612;BME280;26317;44.894;20.286;2022-12-24T08:52:10;100614.38;;;9.91;98.79
40612;BME280;26317;44.894;20.286;2022-12-24T08:54:52;100628.31;;;9.98;98.46
40612;BME280;26317;44.894;20.286;2022-12-24T08:57:33;100633.44;;;10.04;98.32
40612;BME280;26317;44.894;20.286;2022-12-24T09:00:25;100634.78;;;10.07;97.91
40612;BME280;26317;44.894;20.286;2022-12-24T09:02:56;100628.59;;;10.06;97.44
40612;BME280;26317;44.894;20.286;2022-12-24T09:05:30;100621.94;;;10.09;97.64
40612;BME280;26317;44.894;20.286;2022-12-24T09:08:01;100617.91;;;10.11;97.54
40612;BME280;26317;44.894;20.286;2022-12-24T09:10:33;100630.25;;;10.12;98.11
40612;BME280;26317;44.894;20.286;2022-12-24T09:13:05;100633.47;;;10.09;98.24
40612;BME280;26317;44.894;20.286;2022-12-24T09:15:52;100628.34;;;10.03;98.08
40612;BME280;26317;44.894;20.286;2022-12-24T09:18:27;100659.22;;;10.21;97.23
40612;BME280;26317;44.894;20.286;2022-12-24T09:21:12;100658.66;;;10.19;97.27
40612;BME280;26317;44.894;20.286;2022-12-24T09:23:58;100647.94;;;10.19;97.78
40612;BME280;26317;44.894;20.286;2022-12-24T09:26:35;100660.88;;;10.27;98.50
40612;BME280;26317;44.894;20.286;2022-12-24T09:29:05;100662.72;;;10.31;99.03
40612;BME280;26317;44.894;20.286;2022-12-24T09:31:47;100667.81;;;10.33;98.35
40612;BME280;26317;44.894;20.286;2022-12-24T09:34:16;100668.38;;;10.40;98.82
40612;BME280;26317;44.894;20.286;2022-12-24T09:36:50;100658.75;;;10.39;99.25
40612;BME280;26317;44.894;20.286;2022-12-24T09:39:24;100657.13;;;10.38;99.45
40612;BME280;26317;44.894;20.286;2022-12-24T09:41:59;100672.41;;;10.42;99.52
40612;BME280;26317;44.894;20.286;2022-12-24T09:44:41;100664.91;;;10.39;100.00
40612;BME280;26317;44.894;20.286;2022-12-24T09:47:26;100685.53;;;10.49;100.00
40612;BME280;26317;44.894;20.286;2022-12-24T09:50:00;100692.25;;;10.46;99.53
40612;BME280;26317;44.894;20.286;2022-12-24T09:52:35;100686.63;;;10.43;99.21
40612;BME280;26317;44.894;20.286;2022-12-24T09:55:19;100690.38;;;10.47;100.00
40612;BME280;26317;44.894;20.286;2022-12-24T09:57:55;100643.13;;;10.15;100.00
40612;BME280;26317;44.894;20.286;2022-12-24T10:00:34;100697.88;;;10.50;100.00
40612;BME280;26317;44.894;20.286;2022-12-24T10:03:16;100707.00;;;10.49;100.00
40612;BME280;26317;44.894;20.286;2022-12-24T10:05:54;100703.25;;;10.50;100.00
40612;BME280;26317;44.894;20.286;2022-12-24T10:08:33;100706.75;;;10.55;100.00
40612;BME280;26317;44.894;20.286;2022-12-24T10:11:18;100706.50;;;10.52;100.00
40612;BME280;26317;44.894;20.286;2022-12-24T10:14:10;100702.19;;;10.46;100.00
40612;BME280;26317;44.894;20.286;2022-12-24T10:16:55;100699.25;;;10.47;100.00
40612;BME280;26317;44.894;20.286;2022-12-24T10:19:39;100688.22;;;10.39;100.00
40612;BME280;26317;44.894;20.286;2022-12-24T10:22:20;100706.47;;;10.57;100.00
40612;BME280;26317;44.894;20.286;2022-12-24T10:25:05;100716.13;;;10.58;100.00
40612;BME280;26317;44.894;20.286;2022-12-24T10:27:48;100717.75;;;10.59;100.00
40612;BME280;26317;44.894;20.286;2022-12-24T10:30:23;100709.16;;;10.57;100.00
40612;BME280;26317;44.894;20.286;2022-12-24T10:32:54;100710.78;;;10.58;100.00
40612;BME280;26317;44.894;20.286;2022-12-24T10:35:36;100716.41;;;10.56;100.00
40612;BME280;26317;44.894;20.286;2022-12-24T10:38:14;100709.16;;;10.57;100.00
40612;BME280;26317;44.894;20.286;2022-12-24T10:40:51;100701.63;;;10.49;100.00
40612;BME280;26317;44.894;20.286;2022-12-24T10:43:32;100719.38;;;10.60;100.00
40612;BME280;26317;44.894;20.286;2022-12-24T10:46:17;100707.81;;;10.54;100.00
40612;BME280;26317;44.894;20.286;2022-12-24T10:48:57;100716.13;;;10.53;100.00
40612;BME280;26317;44.894;20.286;2022-12-24T10:51:40;100717.22;;;10.52;100.00
40612;BME280;26317;44.894;20.286;2022-12-24T10:54:24;100710.78;;;10.58;100.00
40612;BME280;26317;44.894;20.286;2022-12-24T10:56:56;100710.22;;;10.61;100.00
40612;BME280;26317;44.894;20.286;2022-12-24T10:59:30;100711.31;;;10.65;100.00
40612;BME280;26317;44.894;20.286;2022-12-24T11:02:25;100710.25;;;10.66;100.00
40612;BME280;26317;44.894;20.286;2022-12-24T11:04:59;100714.28;;;10.74;100.00
40612;BME280;26317;44.894;20.286;2022-12-24T11:07:34;100699.78;;;10.65;100.00
40612;BME280;26317;44.894;20.286;2022-12-24T11:10:06;100718.84;;;10.73;100.00
40612;BME280;26317;44.894;20.286;2022-12-24T11:12:46;100708.09;;;10.73;100.00
40612;BME280;26317;44.894;20.286;2022-12-24T11:15:31;100703.28;;;10.70;100.00
40612;BME280;26317;44.894;20.286;2022-12-24T11:18:13;100717.53;;;10.81;100.00
40612;BME280;26317;44.894;20.286;2022-12-24T11:20:50;100726.91;;;10.83;100.00
40612;BME280;26317;44.894;20.286;2022-12-24T11:23:29;100726.91;;;10.83;100.00
40612;BME280;26317;44.894;20.286;2022-12-24T11:26:03;100722.59;;;10.87;100.00
40612;BME280;26317;44.894;20.286;2022-12-24T11:28:38;100725.03;;;10.89;100.00
40612;BME280;26317;44.894;20.286;2022-12-24T11:31:20;100716.97;;;10.89;100.00
40612;BME280;26317;44.894;20.286;2022-12-24T11:33:59;100722.63;;;10.92;100.00
40612;BME280;26317;44.894;20.286;2022-12-24T11:36:34;100727.44;;;11.00;100.00
40612;BME280;26317;44.894;20.286;2022-12-24T11:39:17;100718.84;;;11.03;100.00
40612;BME280;26317;44.894;20.286;2022-12-24T11:41:51;100733.06;;;11.04;100.00
40612;BME280;26317;44.894;20.286;2022-12-24T11:44:24;100726.34;;;11.06;100.00
40612;BME280;26317;44.894;20.286;2022-12-24T11:46:56;100734.41;;;11.06;100.00
40612;BME280;26317;44.894;20.286;2022-12-24T11:49:45;100735.22;;;11.07;100.00
40612;BME280;26317;44.894;20.286;2022-12-24T11:52:22;100749.19;;;11.09;100.00
40612;BME280;26317;44.894;20.286;2022-12-24T11:55:11;100743.00;;;11.08;100.00
40612;BME280;26317;44.894;20.286;2022-12-24T11:57:59;100743.00;;;11.08;100.00
40612;BME280;26317;44.894;20.286;2022-12-24T12:00:37;100745.44;;;11.10;100.00
40612;BME280;26317;44.894;20.286;2022-12-24T12:03:28;100740.59;;;11.07;100.00
40612;BME280;26317;44.894;20.286;2022-12-24T12:06:02;100741.41;;;11.07;100.00
40612;BME280;26317;44.894;20.286;2022-12-24T12:08:36;100741.66;;;11.11;100.00
40612;BME280;26317;44.894;20.286;2022-12-24T12:11:15;100743.28;;;11.12;100.00
40612;BME280;26317;44.894;20.286;2022-12-24T12:13:46;100737.09;;;11.12;100.00
40612;BME280;26317;44.894;20.286;2022-12-24T12:16:39;100740.34;;;11.14;100.00
40612;BME280;26317;44.894;20.286;2022-12-24T12:19:42;100736.03;;;11.18;100.00
40612;BME280;26317;44.894;20.286;2022-12-24T12:22:41;100749.16;;;11.24;100.00
40612;BME280;26317;44.894;20.286;2022-12-24T12:25:31;100750.25;;;11.28;100.00
40612;BME280;26317;44.894;20.286;2022-12-24T12:28:18;100736.00;;;11.28;100.00
40612;BME280;26317;44.894;20.286;2022-12-24T12:30:58;100740.84;;;11.36;100.00
40612;BME280;26317;44.894;20.286;2022-12-24T12:33:38;100735.19;;;11.37;100.00
40612;BME280;26317;44.894;20.286;2022-12-24T12:36:18;100742.44;;;11.42;100.00
40612;BME280;26317;44.894;20.286;2022-12-24T12:38:52;100741.09;;;11.44;100.00
40612;BME280;26317;44.894;20.286;2022-12-24T12:41:34;100743.00;;;11.39;100.00
40612;BME280;26317;44.894;20.286;2022-12-24T12:44:33;100752.66;;;11.35;100.00
40612;BME280;26317;44.894;20.286;2022-12-24T12:47:38;100756.69;;;11.32;100.00
40612;BME280;26317;44.894;20.286;2022-12-24T12:50:32;100767.72;;;11.31;100.00
40612;BME280;26317;44.894;20.286;2022-12-24T12:53:22;100775.50;;;11.22;100.00
40612;BME280;26317;44.894;20.286;2022-12-24T12:56:05;100777.91;;;11.29;100.00
40612;BME280;26317;44.894;20.286;2022-12-24T12:58:49;100781.94;;;11.26;100.00
40612;BME280;26317;44.894;20.286;2022-12-24T13:01:42;100802.63;;;11.26;100.00
40612;BME280;26317;44.894;20.286;2022-12-24T13:04:46;100794.56;;;11.21;100.00
40612;BME280;26317;44.894;20.286;2022-12-24T13:07:53;100797.78;;;11.23;100.00
40612;BME280;26317;44.894;20.286;2022-12-24T13:11:01;100796.72;;;11.19;100.00
40612;BME280;26317;44.894;20.286;2022-12-24T13:14:15;100788.09;;;11.17;100.00
40612;BME280;26317;44.894;20.286;2022-12-24T13:17:37;100791.06;;;11.15;100.00
40612;BME280;26317;44.894;20.286;2022-12-24T13:20:25;100797.50;;;11.19;100.00
40612;BME280;26317;44.894;20.286;2022-12-24T13:23:00;100796.16;;;11.22;100.00
40612;BME280;26317;44.894;20.286;2022-12-24T13:25:38;100806.91;;;11.22;100.00
40612;BME280;26317;44.894;20.286;2022-12-24T13:28:15;100806.09;;;11.26;100.00
40612;BME280;26317;44.894;20.286;2022-12-24T13:30:49;100804.22;;;11.27;100.00
40612;BME280;26317;44.894;20.286;2022-12-24T13:37:02;100809.03;;;11.20;100.00
40612;BME280;26317;44.894;20.286;2022-12-24T13:40:22;100805.03;;;11.22;100.00
40612;BME280;26317;44.894;20.286;2022-12-24T13:43:15;100795.38;;;11.21;100.00
40612;BME280;26317;44.894;20.286;2022-12-24T13:45:56;100801.53;;;11.22;100.00
40612;BME280;26317;44.894;20.286;2022-12-24T13:48:32;100816.59;;;11.23;100.00
40612;BME280;26317;44.894;20.286;2022-12-24T13:51:18;100823.03;;;11.22;100.00
40612;BME280;26317;44.894;20.286;2022-12-24T13:53:59;100829.72;;;11.19;100.00